El Centro Naf Airport
KNJK : now visible

Airfield :











YOU CAN JOIN US ON...

 
LOGIN :

Register | Disclaimer

   EN    FR    IT 

 









Legend :    VFR   Marginal VFR   IFR   Intensive IFR   Very Intensive IFR
Visi :
Ceiling :
>= 8 km
>= 3000ft
5 to 8 km
1000 to 3000 ft
1500m to 5 km
500 to 1000 ft
800 to 1500m
200 to 500 ft
< 800m
< 200 ft
Symbols :   Thunderstorms  Fog  Heavy snow  Heavy precipitations  Wind > 20 kt






- Airport Elevation : -42 ft


KNJK - El Centro Naf

CURRENT METAR :
  • 291256Z 21003KT 10SM FEW100 31/04 A2985 RMK AO2 SLP124 T03060039 $

EXPIRED METARs :
  • 291156Z AUTO 19005KT 10SM CLR 31/02 A2985 RMK AO2 SLP122 T03060017 10339 20306 53006 $
  • 291056Z AUTO 27009KT 10SM CLR 31/02 A2983 RMK AO2 SLP117 T03110022 $
  • 290956Z AUTO 26010KT 10SM CLR 32/02 A2983 RMK AO2 SLP115 T03220017 $

TAF TAF KNJK
Valid from the 29 at 07:00 until the 30 at 07:00 UTC


2907/3007 23010KT 9999 FEW090 QNH2981INS
FM290900 VRB06KT 9999 SKC QNH2973INS
FM292200 22012G20KT 9999 FEW100 QNH2970INS
TEMPO 3001/3005 22015G24KT
FM300500 23009KT 9999 SKC QNH2982INS AUTOMATED SENSOR METWATCH 2907 TIL 2913 T28/2913Z T44/2923Z FS30170
KZLA FIR / North America



MET'MAP, your aeronautical weather chart ! - Copyright ORBIFLY December 2007 - Disclaimer

ORBIFLY MET'MAP TEAM :

Programming & Development : Alexandra Zaïnal
Original concept : Baudouin d'Aumeries
Technical & hardware support : Manuel Goepfert
Assistance : Marc-Olivier Méhu




SOURCES & CREDITS :

   NOAA       Earth
Advisory